createdAt,value
2022-08-17T00:00:06.321Z,100848.38
2022-08-17T00:02:38.314Z,100844.00
2022-08-17T00:05:12.177Z,100846.59
2022-08-17T00:07:39.868Z,100843.84
2022-08-17T00:10:08.464Z,100835.91
2022-08-17T00:12:44.333Z,100833.47
2022-08-17T00:15:13.844Z,100811.44
2022-08-17T00:17:42.138Z,100818.41
2022-08-17T00:20:13.427Z,100814.03
2022-08-17T00:22:42.687Z,100814.84
2022-08-17T00:25:13.962Z,100808.84
2022-08-17T00:27:41.997Z,100814.38
2022-08-17T00:30:13.240Z,100819.06
2022-08-17T00:33:13.956Z,100812.75
2022-08-17T00:35:32.388Z,100802.38
2022-08-17T00:38:00.094Z,100804.81
2022-08-17T00:40:39.790Z,100803.19
2022-08-17T00:43:16.486Z,100809.81
2022-08-17T00:45:44.763Z,100809.03
2022-08-17T00:48:29.547Z,100803.03
2022-08-17T00:51:06.475Z,100810.47
2022-08-17T00:53:36.564Z,100806.09
2022-08-17T00:56:08.328Z,100804.47
2022-08-17T00:58:37.325Z,100808.38
2022-08-17T01:01:06.328Z,100806.75
2022-08-17T01:03:35.973Z,100812.59
2022-08-17T01:06:07.237Z,100801.91
2022-08-17T01:08:36.703Z,100800.75
2022-08-17T01:11:06.107Z,100792.84
2022-08-17T01:13:40.785Z,100797.50
2022-08-17T01:16:17.064Z,100795.06
2022-08-17T01:18:46.691Z,100790.22
2022-08-17T01:21:23.382Z,100788.59
2022-08-17T01:23:52.554Z,100788.91
2022-08-17T01:26:21.092Z,100788.44
2022-08-17T01:28:54.729Z,100789.56
2022-08-17T01:31:25.863Z,100781.63
2022-08-17T01:33:53.947Z,100776.44
2022-08-17T01:36:22.001Z,100779.53
2022-08-17T01:38:49.688Z,100778.72
2022-08-17T01:41:22.071Z,100773.03
2022-08-17T01:43:53.182Z,100771.09
2022-08-17T01:46:24.059Z,100771.44
2022-08-17T01:48:51.837Z,100766.25
2022-08-17T01:51:21.170Z,100756.38
2022-08-17T01:53:51.847Z,100763.81
2022-08-17T01:56:23.724Z,100757.81
2022-08-17T01:58:51.811Z,100766.41
2022-08-17T02:01:22.628Z,100762.84
2022-08-17T02:03:59.123Z,100769.47
2022-08-17T02:06:28.978Z,100761.22
2022-08-17T02:09:02.271Z,100760.75
2022-08-17T02:11:34.386Z,100755.06
2022-08-17T02:14:04.035Z,100753.13
2022-08-17T02:16:36.868Z,100763.81
2022-08-17T02:19:05.705Z,100753.94
2022-08-17T02:21:33.624Z,100749.25
2022-08-17T02:24:01.484Z,100751.50
2022-08-17T02:26:29.360Z,100748.75
2022-08-17T02:28:58.399Z,100754.59
2022-08-17T02:31:26.095Z,100751.03
2022-08-17T02:34:03.487Z,100745.84
2022-08-17T02:36:33.294Z,100747.78
2022-08-17T02:39:01.618Z,100735.97
2022-08-17T02:41:29.489Z,100737.91
2022-08-17T02:43:58.625Z,100734.69
2022-08-17T02:46:26.308Z,100737.75
2022-08-17T02:48:53.981Z,100735.00
2022-08-17T02:51:21.675Z,100729.81
2022-08-17T02:53:49.379Z,100729.00
2022-08-17T02:56:17.270Z,100731.28
2022-08-17T02:58:45.100Z,100731.28
2022-08-17T03:01:14.502Z,100729.66
2022-08-17T03:03:42.476Z,100729.66
2022-08-17T03:06:10.753Z,100727.22
2022-08-17T03:08:38.581Z,100724.31
2022-08-17T03:11:06.451Z,100719.94
2022-08-17T03:13:34.096Z,100725.78
2022-08-17T03:16:01.808Z,100726.91
2022-08-17T03:18:30.858Z,100717.34
2022-08-17T03:21:00.820Z,100723.97
2022-08-17T03:23:29.632Z,100727.06
2022-08-17T03:25:59.132Z,100726.25
2022-08-17T03:28:28.179Z,100731.25
2022-08-17T03:30:55.979Z,100732.38
2022-08-17T03:33:23.804Z,100726.69
2022-08-17T03:35:53.331Z,100724.59
2022-08-17T03:38:21.818Z,100708.88
2022-08-17T03:40:56.705Z,100729.91
2022-08-17T03:43:29.243Z,100724.56
2022-08-17T03:46:27.753Z,100728.63
2022-08-17T03:49:17.908Z,100733.63
2022-08-17T03:52:04.518Z,100740.25
2022-08-17T03:54:49.832Z,100739.75
2022-08-17T03:57:17.511Z,100747.19
2022-08-17T03:59:45.389Z,100753.00
2022-08-17T04:02:18.489Z,100749.78
2022-08-17T04:04:46.599Z,100759.97
2022-08-17T04:07:15.660Z,100758.34
2022-08-17T04:09:43.810Z,100752.03
2022-08-17T04:12:12.031Z,100759.78
2022-08-17T04:14:52.641Z,100757.84
2022-08-17T04:17:21.881Z,100762.53
2022-08-17T04:19:49.564Z,100760.91
2022-08-17T04:22:33.235Z,100770.28
2022-08-17T04:25:07.740Z,100795.34
2022-08-17T04:27:35.476Z,100829.47
2022-08-17T04:30:03.527Z,100850.94
2022-08-17T04:33:00.829Z,100834.78
2022-08-17T04:35:21.166Z,100823.28
2022-08-17T04:37:50.631Z,100848.03
2022-08-17T04:40:37.699Z,100859.34
2022-08-17T04:43:08.342Z,100842.34
2022-08-17T04:45:40.129Z,100835.53
2022-08-17T04:48:23.061Z,100844.91
2022-08-17T04:50:55.991Z,100840.53
2022-08-17T04:53:25.025Z,100826.31
2022-08-17T04:55:53.350Z,100806.72
2022-08-17T04:58:21.747Z,100812.88
2022-08-17T05:00:49.579Z,100803.84
2022-08-17T05:03:17.370Z,100819.81
2022-08-17T05:05:49.729Z,100807.53
2022-08-17T05:08:20.658Z,100813.34
2022-08-17T05:10:50.122Z,100812.03
2022-08-17T05:13:20.003Z,100817.53
2022-08-17T05:15:49.078Z,100824.47
2022-08-17T05:18:18.210Z,100818.97
2022-08-17T05:20:46.768Z,100819.28
2022-08-17T05:23:17.009Z,100817.34
2022-08-17T05:25:47.567Z,100815.72
2022-08-17T05:28:17.554Z,100815.22
2022-08-17T05:30:48.693Z,100817.47
2022-08-17T05:33:19.257Z,100823.78
2022-08-17T05:35:49.509Z,100819.41
2022-08-17T05:38:19.429Z,100817.47
2022-08-17T05:40:47.619Z,100823.28
2022-08-17T05:43:22.417Z,100828.28
2022-08-17T05:45:57.394Z,100835.72
2022-08-17T05:48:39.406Z,100834.09
2022-08-17T05:51:32.922Z,100838.78
2022-08-17T05:54:11.042Z,100833.63
2022-08-17T05:57:00.718Z,100830.34
2022-08-17T05:59:44.863Z,100827.31
2022-08-17T06:02:21.940Z,100822.94
2022-08-17T06:05:06.500Z,100817.56
2022-08-17T06:07:42.507Z,100822.28
2022-08-17T06:10:18.394Z,100819.56
2022-08-17T06:13:01.697Z,100824.72
2022-08-17T06:15:36.842Z,100824.72
2022-08-17T06:18:09.167Z,100826.34
2022-08-17T06:20:47.364Z,100826.34
2022-08-17T06:23:25.773Z,100838.47
2022-08-17T06:25:59.756Z,100842.34
2022-08-17T06:28:36.408Z,100843.16
2022-08-17T06:31:12.618Z,100848.63
2022-08-17T06:33:44.782Z,100843.16
2022-08-17T06:36:36.250Z,100853.31
2022-08-17T06:39:21.965Z,100839.13
2022-08-17T06:42:00.699Z,100851.19
2022-08-17T06:44:47.635Z,100853.13
2022-08-17T06:47:28.175Z,100855.06
2022-08-17T06:50:06.008Z,100858.13
2022-08-17T06:52:45.812Z,100865.56
2022-08-17T06:55:21.306Z,100868.63
2022-08-17T06:57:52.619Z,100875.25
2022-08-17T07:00:23.899Z,100885.41
2022-08-17T07:02:58.711Z,100890.09
2022-08-17T07:05:33.207Z,100891.22
2022-08-17T07:08:05.608Z,100888.47
2022-08-17T07:10:39.212Z,100895.91
2022-08-17T07:13:25.433Z,100891.53
2022-08-17T07:16:00.703Z,100879.22
2022-08-17T07:18:33.132Z,100881.97
2022-08-17T07:21:09.280Z,100878.41
2022-08-17T07:23:50.687Z,100885.03
2022-08-17T07:26:18.416Z,100870.81
2022-08-17T07:28:46.376Z,100873.97
2022-08-17T07:31:17.224Z,100890.84
2022-08-17T07:34:01.078Z,100899.88
2022-08-17T07:36:33.680Z,100905.38
2022-08-17T07:39:03.766Z,100905.38
2022-08-17T07:41:57.349Z,100903.44
2022-08-17T07:44:27.619Z,100900.19
2022-08-17T07:47:13.162Z,100900.19
2022-08-17T07:49:46.012Z,100898.88
2022-08-17T07:52:51.345Z,100906.50
2022-08-17T07:55:27.351Z,100907.63
2022-08-17T07:57:57.398Z,100897.75
2022-08-17T08:00:31.816Z,100903.25
2022-08-17T08:03:16.532Z,100905.19
2022-08-17T08:05:56.380Z,100902.44
2022-08-17T08:08:32.744Z,100902.44
2022-08-17T08:11:07.181Z,100904.06
2022-08-17T08:13:40.346Z,100899.69
2022-08-17T08:16:25.874Z,100889.84
2022-08-17T08:18:57.745Z,100893.72
2022-08-17T08:21:41.751Z,100890.97
2022-08-17T08:24:31.957Z,100892.59
2022-08-17T08:27:12.741Z,100901.13
2022-08-17T08:29:47.992Z,100901.13
2022-08-17T08:32:25.522Z,100906.94
2022-08-17T08:35:03.717Z,100921.47
2022-08-17T08:37:43.156Z,100942.31
2022-08-17T08:40:21.555Z,100929.41
2022-08-17T08:42:57.979Z,100929.09
2022-08-17T08:45:33.541Z,100933.16
2022-08-17T08:48:52.877Z,100930.09
2022-08-17T08:51:13.263Z,100924.91
2022-08-17T08:53:52.999Z,100915.88
2022-08-17T08:56:28.871Z,100915.88
2022-08-17T08:59:03.321Z,100924.91
2022-08-17T09:01:38.767Z,100918.59
2022-08-17T09:04:27.062Z,100916.97
2022-08-17T09:07:05.943Z,100928.78
2022-08-17T09:09:47.527Z,100929.91
2022-08-17T09:12:22.569Z,100935.72
2022-08-17T09:14:55.610Z,100932.16
2022-08-17T09:17:44.207Z,100944.75
2022-08-17T09:20:27.898Z,100965.59
2022-08-17T09:23:04.005Z,100967.22
2022-08-17T09:25:43.174Z,100971.59
2022-08-17T09:28:20.152Z,100993.25
2022-08-17T09:30:52.647Z,101000.38
2022-08-17T09:33:26.892Z,101008.91
2022-08-17T09:35:58.162Z,101022.03
2022-08-17T09:38:33.758Z,101022.84
2022-08-17T09:41:17.457Z,101016.66
2022-08-17T09:43:54.579Z,101026.72
2022-08-17T09:46:29.407Z,101015.41
2022-08-17T09:49:03.350Z,101015.41
2022-08-17T09:51:36.349Z,101013.78
2022-08-17T09:54:37.069Z,101007.50
2022-08-17T09:57:28.505Z,101010.25
2022-08-17T10:00:13.243Z,101002.00
2022-08-17T10:03:16.167Z,100984.72
2022-08-17T10:05:51.236Z,100987.25
2022-08-17T10:08:33.869Z,100998.75
2022-08-17T10:11:13.705Z,101000.69
2022-08-17T10:13:52.938Z,101010.53
2022-08-17T10:16:31.320Z,100997.94
2022-08-17T10:19:13.735Z,100999.06
2022-08-17T10:22:14.608Z,100991.94
2022-08-17T10:25:22.236Z,100990.31
2022-08-17T10:27:55.563Z,100982.69
2022-08-17T10:30:27.659Z,100984.63
2022-08-17T10:32:59.222Z,100986.88
2022-08-17T10:35:35.780Z,100989.13
2022-08-17T10:38:29.387Z,100978.44
2022-08-17T10:41:02.470Z,100969.69
2022-08-17T10:43:57.885Z,100968.06
2022-08-17T10:46:52.103Z,100960.44
2022-08-17T10:49:30.326Z,100954.16
2022-08-17T10:51:59.860Z,100955.56
2022-08-17T10:54:49.588Z,100963.00
2022-08-17T10:57:39.892Z,100962.50
2022-08-17T11:00:15.244Z,100957.31
2022-08-17T11:02:50.827Z,100965.53
2022-08-17T11:05:46.711Z,100969.41
2022-08-17T11:08:38.367Z,100976.03
2022-08-17T11:11:24.231Z,100983.44
2022-08-17T11:14:06.234Z,100992.50
2022-08-17T11:16:47.889Z,100991.69
2022-08-17T11:19:38.284Z,100987.31
2022-08-17T11:22:37.997Z,100997.47
2022-08-17T11:25:14.668Z,100998.59
2022-08-17T11:27:44.003Z,101007.13
2022-08-17T11:30:14.791Z,101020.06
2022-08-17T11:32:47.627Z,101027.47
2022-08-17T11:35:39.902Z,101031.03
2022-08-17T11:38:19.552Z,101028.59
2022-08-17T11:41:15.770Z,101026.47
2022-08-17T11:44:01.980Z,101039.56
2022-08-17T11:46:59.605Z,101040.69
2022-08-17T11:50:15.277Z,101042.63
2022-08-17T11:52:47.192Z,101048.09
2022-08-17T11:55:50.890Z,101046.47
2022-08-17T11:58:42.247Z,101049.22
2022-08-17T12:01:13.553Z,101042.72
2022-08-17T12:03:54.298Z,101045.66
2022-08-17T12:06:45.055Z,101055.03
2022-08-17T12:09:18.567Z,101071.47
2022-08-17T12:12:11.265Z,101066.81
2022-08-17T12:17:40.815Z,101064.06
2022-08-17T12:20:15.028Z,101059.69
2022-08-17T12:22:56.507Z,101056.13
2022-08-17T12:25:34.767Z,101055.31
2022-08-17T12:28:06.138Z,101048.00
2022-08-17T12:30:35.928Z,101050.94
2022-08-17T12:33:03.762Z,101048.50
2022-08-17T12:35:35.332Z,101050.13
2022-08-17T12:38:04.515Z,101037.84
2022-08-17T12:40:34.674Z,101050.44
2022-08-17T12:43:04.894Z,101050.75
2022-08-17T12:45:35.970Z,101044.44
2022-08-17T12:48:07.826Z,101049.13
2022-08-17T12:50:37.197Z,101051.06
2022-08-17T12:53:11.361Z,101040.38
2022-08-17T12:55:40.465Z,101034.09
2022-08-17T12:58:14.642Z,101032.75
2022-08-17T13:00:48.583Z,101028.38
2022-08-17T13:03:19.210Z,101031.44
2022-08-17T13:05:58.464Z,101025.94
2022-08-17T13:08:30.084Z,101029.00
2022-08-17T13:11:01.359Z,101032.84
2022-08-17T13:13:32.456Z,101026.56
2022-08-17T13:16:02.933Z,101032.03
2022-08-17T13:18:43.205Z,101037.81
2022-08-17T13:21:19.148Z,101026.00
2022-08-17T13:23:56.978Z,101027.13
2022-08-17T13:26:30.495Z,101027.94
2022-08-17T13:28:59.035Z,101019.72
2022-08-17T13:31:50.406Z,101026.63
2022-08-17T13:34:33.400Z,101031.81
2022-08-17T13:37:28.814Z,101021.94
2022-08-17T13:39:59.281Z,101023.06
2022-08-17T13:42:52.282Z,101020.31
2022-08-17T13:45:39.263Z,101019.81
2022-08-17T13:48:14.453Z,101018.69
2022-08-17T13:50:45.049Z,101014.63
2022-08-17T13:53:21.981Z,101017.06
2022-08-17T13:55:52.889Z,101014.31
2022-08-17T13:58:24.690Z,101017.88
2022-08-17T14:00:52.768Z,101011.88
2022-08-17T14:03:21.503Z,101009.97
2022-08-17T14:05:50.885Z,101014.31
2022-08-17T14:08:21.766Z,101009.66
2022-08-17T14:10:58.764Z,101014.31
2022-08-17T14:13:28.645Z,101011.88
2022-08-17T14:15:56.910Z,101022.56
2022-08-17T14:18:55.401Z,101016.25
2022-08-17T14:21:12.732Z,101022.56
2022-08-17T14:23:40.870Z,101015.44
2022-08-17T14:26:11.512Z,101019.00
2022-08-17T14:28:53.586Z,101010.78
2022-08-17T14:31:24.921Z,101009.97
2022-08-17T14:33:53.023Z,101009.97
2022-08-17T14:36:20.721Z,101004.16
2022-08-17T14:38:48.439Z,101009.66
2022-08-17T14:41:21.473Z,101014.31
2022-08-17T14:43:51.348Z,101016.25
2022-08-17T14:46:19.043Z,101013.81
2022-08-17T14:48:46.891Z,101013.00
2022-08-17T14:51:14.581Z,101019.31
2022-08-17T14:53:42.622Z,101013.00
2022-08-17T14:56:10.757Z,101015.75
2022-08-17T14:58:38.939Z,101008.63
2022-08-17T15:01:10.946Z,101019.59
2022-08-17T15:03:40.808Z,101020.72
2022-08-17T15:06:11.162Z,101014.44
2022-08-17T15:08:40.264Z,101010.06
2022-08-17T15:11:14.214Z,101015.84
2022-08-17T15:13:52.001Z,101015.84
2022-08-17T15:16:22.641Z,101018.06
2022-08-17T15:18:52.631Z,101017.25
2022-08-17T15:21:20.388Z,101026.59
2022-08-17T15:23:48.102Z,101024.97
2022-08-17T15:26:16.797Z,101029.16
2022-08-17T15:28:44.494Z,101026.41
2022-08-17T15:31:31.646Z,101029.44
2022-08-17T15:34:00.766Z,101030.56
2022-08-17T15:36:28.717Z,101030.06
2022-08-17T15:38:56.415Z,101023.44
2022-08-17T15:41:24.104Z,101026.50
2022-08-17T15:43:51.842Z,101018.97
2022-08-17T15:46:22.999Z,101021.63
2022-08-17T15:48:52.970Z,101024.34
2022-08-17T15:51:23.375Z,101012.88
2022-08-17T15:53:53.554Z,101012.06
2022-08-17T15:56:21.610Z,101016.75
2022-08-17T15:58:50.223Z,101013.47
2022-08-17T16:01:40.505Z,101003.31
2022-08-17T16:04:30.184Z,100998.44
2022-08-17T16:06:58.914Z,101003.94
2022-08-17T16:09:26.625Z,100987.47
2022-08-17T16:11:56.112Z,100990.22
2022-08-17T16:14:33.812Z,100995.69
2022-08-17T16:17:03.018Z,100999.25
2022-08-17T16:19:32.493Z,100998.44
2022-08-17T16:22:00.205Z,100996.53
2022-08-17T16:24:27.910Z,101001.19
2022-08-17T16:26:55.922Z,101001.19
2022-08-17T16:29:23.646Z,101005.84
2022-08-17T16:31:51.472Z,100996.53
2022-08-17T16:34:19.619Z,100996.53
2022-08-17T16:36:55.692Z,100998.44
2022-08-17T16:39:25.725Z,101000.38
2022-08-17T16:41:53.464Z,100995.69
2022-08-17T16:44:22.549Z,101002.00
2022-08-17T16:46:51.192Z,101001.19
2022-08-17T16:49:25.799Z,101006.97
2022-08-17T16:52:07.434Z,101007.78
2022-08-17T16:54:35.914Z,101005.03
2022-08-17T16:57:05.065Z,101013.28
2022-08-17T16:59:41.978Z,101016.81
2022-08-17T17:02:15.673Z,101017.63
2022-08-17T17:04:51.210Z,101022.31
2022-08-17T17:07:48.561Z,101028.59
2022-08-17T17:10:18.396Z,101029.44
2022-08-17T17:13:02.071Z,101040.38
2022-08-17T17:15:46.350Z,101036.84
2022-08-17T17:18:15.393Z,101046.19
2022-08-17T17:20:49.905Z,101043.44
2022-08-17T17:23:31.457Z,101039.06
2022-08-17T17:26:10.967Z,101049.22
2022-08-17T17:28:47.352Z,101043.22
2022-08-17T17:31:16.309Z,101038.56
2022-08-17T17:33:47.771Z,101039.66
2022-08-17T17:36:25.173Z,101043.53
2022-08-17T17:39:00.211Z,101042.72
2022-08-17T17:41:33.911Z,101043.00
2022-08-17T17:44:07.484Z,101053.97
2022-08-17T17:46:39.234Z,101052.34
2022-08-17T17:49:11.126Z,101057.31
2022-08-17T17:52:08.551Z,101048.28
2022-08-17T17:55:01.855Z,101040.66
2022-08-17T17:57:39.299Z,101043.09
2022-08-17T18:00:12.586Z,101046.13
2022-08-17T18:03:02.035Z,101048.06
2022-08-17T18:06:02.245Z,101046.75
2022-08-17T18:08:47.882Z,101045.94
2022-08-17T18:11:34.924Z,101057.19
2022-08-17T18:14:15.338Z,101057.19
2022-08-17T18:16:44.597Z,101062.16
2022-08-17T18:19:14.172Z,101063.28
2022-08-17T18:21:46.912Z,101067.13
2022-08-17T18:24:15.387Z,101061.94
2022-08-17T18:26:48.136Z,101069.66
2022-08-17T18:29:31.160Z,101066.91
2022-08-17T18:32:28.223Z,101068.03
2022-08-17T18:34:58.822Z,101072.69
2022-08-17T18:37:40.045Z,101075.72
2022-08-17T18:40:33.232Z,101079.59
2022-08-17T18:43:12.413Z,101082.63
2022-08-17T18:45:45.627Z,101076.63
2022-08-17T18:48:30.011Z,101093.88
2022-08-17T18:51:03.086Z,101103.50
2022-08-17T18:53:40.605Z,101099.97
2022-08-17T18:56:25.604Z,101106.53
2022-08-17T18:59:02.040Z,101109.56
2022-08-17T19:01:42.071Z,101106.81
2022-08-17T19:04:34.715Z,101110.16
2022-08-17T19:07:26.619Z,101116.75
2022-08-17T19:09:59.335Z,101116.22
2022-08-17T19:12:32.446Z,101116.22
2022-08-17T19:15:01.949Z,101118.44
2022-08-17T19:17:38.470Z,101116.00
2022-08-17T19:20:15.086Z,101115.47
2022-08-17T19:22:57.356Z,101120.16
2022-08-17T19:25:28.409Z,101116.88
2022-08-17T19:28:21.504Z,101109.25
2022-08-17T19:30:56.649Z,101104.88
2022-08-17T19:33:25.795Z,101106.81
2022-08-17T19:36:02.015Z,101104.38
2022-08-17T19:38:46.703Z,101105.47
2022-08-17T19:41:24.639Z,101099.50
2022-08-17T19:44:06.645Z,101110.78
2022-08-17T19:46:49.871Z,101106.41
2022-08-17T19:49:40.301Z,101106.69
2022-08-17T19:52:24.072Z,101126.97
2022-08-17T19:54:58.875Z,101141.78
2022-08-17T19:57:38.042Z,101149.19
2022-08-17T20:00:11.140Z,101145.94
2022-08-17T20:02:51.138Z,101146.22
2022-08-17T20:05:23.601Z,101145.41
2022-08-17T20:07:58.236Z,101137.47
2022-08-17T20:10:36.416Z,101139.69
2022-08-17T20:13:09.298Z,101148.72
2022-08-17T20:15:41.715Z,101144.66
2022-08-17T20:18:20.561Z,101153.97
2022-08-17T20:20:56.545Z,101163.00
2022-08-17T20:23:36.517Z,101150.41
2022-08-17T20:26:17.147Z,101148.78
2022-08-17T20:29:20.321Z,101150.72
2022-08-17T20:32:19.854Z,101150.19
2022-08-17T20:34:49.335Z,101145.81
2022-08-17T20:37:31.026Z,101143.09
2022-08-17T20:40:25.923Z,101140.94
2022-08-17T20:42:53.908Z,101131.91
2022-08-17T20:45:50.819Z,101142.03
2022-08-17T20:48:36.978Z,101138.50
2022-08-17T20:51:27.190Z,101141.53
2022-08-17T20:54:23.765Z,101140.47
2022-08-17T20:56:56.194Z,101141.00
2022-08-17T20:59:59.414Z,101140.47
2022-08-17T21:02:29.346Z,101143.50
2022-08-17T21:05:35.547Z,101136.41
2022-08-17T21:08:15.866Z,101142.16
2022-08-17T21:10:46.808Z,101147.13
2022-08-17T21:13:53.358Z,101149.84
2022-08-17T21:16:45.585Z,101154.00
2022-08-17T21:19:31.101Z,101148.50
2022-08-17T21:22:13.201Z,101151.53
2022-08-17T21:24:53.432Z,101153.75
2022-08-17T21:27:33.733Z,101154.06
2022-08-17T21:30:25.098Z,101149.69
2022-08-17T21:33:20.803Z,101146.41
2022-08-17T21:35:52.313Z,101153.00
2022-08-17T21:38:24.099Z,101153.56
2022-08-17T21:40:54.292Z,101146.16
2022-08-17T21:43:27.601Z,101140.69
2022-08-17T21:46:01.834Z,101144.53
2022-08-17T21:48:32.171Z,101141.78
2022-08-17T21:51:10.422Z,101141.25
2022-08-17T21:53:44.650Z,101147.84
2022-08-17T21:56:23.330Z,101150.56
2022-08-17T21:58:57.108Z,101145.41
2022-08-17T22:01:27.018Z,101146.50
2022-08-17T22:03:58.459Z,101140.22
2022-08-17T22:06:28.840Z,101149.53
2022-08-17T22:09:02.946Z,101147.91
2022-08-17T22:11:32.384Z,101150.63
2022-08-17T22:14:05.099Z,101149.81
2022-08-17T22:16:33.758Z,101149.00
2022-08-17T22:19:01.739Z,101148.19
2022-08-17T22:21:29.527Z,101152.84
2022-08-17T22:24:06.048Z,101156.41
2022-08-17T22:27:00.783Z,101160.25
2022-08-17T22:29:47.211Z,101160.53
2022-08-17T22:32:34.463Z,101150.16
2022-08-17T22:35:41.778Z,101152.59
2022-08-17T22:38:32.394Z,101160.81
2022-08-17T22:41:34.467Z,101161.63
2022-08-17T22:44:15.491Z,101159.19
2022-08-17T22:46:52.774Z,101161.09
2022-08-17T22:49:27.271Z,101158.38
2022-08-17T22:52:04.412Z,101162.22
2022-08-17T22:55:01.334Z,101164.94
2022-08-17T22:57:51.443Z,101161.41
2022-08-17T23:00:39.556Z,101163.59
2022-08-17T23:03:14.156Z,101169.06
2022-08-17T23:05:44.947Z,101164.72
2022-08-17T23:08:13.613Z,101172.41
2022-08-17T23:10:42.385Z,101173.22
2022-08-17T23:13:12.510Z,101178.69
2022-08-17T23:15:43.059Z,101186.06
2022-08-17T23:18:10.776Z,101181.72
2022-08-17T23:20:41.363Z,101195.09
2022-08-17T23:23:09.979Z,101187.19
2022-08-17T23:25:37.977Z,101184.44
2022-08-17T23:28:07.839Z,101186.88
2022-08-17T23:30:39.795Z,101183.09
2022-08-17T23:33:10.732Z,101184.72
2022-08-17T23:35:39.575Z,101186.66
2022-08-17T23:38:09.636Z,101184.19
2022-08-17T23:40:39.368Z,101179.53
2022-08-17T23:43:17.565Z,101183.38
2022-08-17T23:45:53.954Z,101180.66
2022-08-17T23:48:35.115Z,101177.09
2022-08-17T23:51:07.272Z,101179.31
2022-08-17T23:53:36.712Z,101184.78
2022-08-17T23:56:10.501Z,101174.66
2022-08-17T23:58:39.403Z,101175.22
